createdAt,value
2022-11-04T00:01:17.078Z,99903.00
2022-11-04T00:03:44.072Z,99891.00
2022-11-04T00:06:11.120Z,99891.00
2022-11-04T00:08:38.084Z,99885.00
2022-11-04T00:11:24.197Z,99888.00
2022-11-04T00:13:51.549Z,99880.00
2022-11-04T00:16:37.152Z,99881.00
2022-11-04T00:19:04.126Z,99878.00
2022-11-04T00:21:49.676Z,99880.00
2022-11-04T00:24:35.029Z,99886.00
2022-11-04T00:27:20.647Z,99877.00
2022-11-04T00:29:47.589Z,99874.00
2022-11-04T00:32:33.061Z,99878.00
2022-11-04T00:35:00.083Z,99870.00
2022-11-04T00:37:27.071Z,99868.00
2022-11-04T00:39:54.003Z,99862.00
2022-11-04T00:42:20.990Z,99855.00
2022-11-04T00:44:48.036Z,99860.00
2022-11-04T00:47:15.016Z,99857.00
2022-11-04T00:49:41.911Z,99857.00
2022-11-04T00:52:08.810Z,99851.00
2022-11-04T00:54:35.810Z,99850.00
2022-11-04T00:57:02.765Z,99853.00
2022-11-04T00:59:29.742Z,99852.00
2022-11-04T01:01:57.176Z,99840.00
2022-11-04T01:04:24.246Z,99834.00
2022-11-04T01:06:51.199Z,99835.00
2022-11-04T01:09:18.654Z,99826.00
2022-11-04T01:11:45.765Z,99824.00
2022-11-04T01:14:13.672Z,99818.00
2022-11-04T01:16:41.003Z,99823.00
2022-11-04T01:19:08.232Z,99781.00
2022-11-04T01:21:35.254Z,99808.00
2022-11-04T01:24:02.680Z,99799.00
2022-11-04T01:26:30.776Z,99800.00
2022-11-04T01:29:00.153Z,99798.00
2022-11-04T01:31:30.546Z,99787.00
2022-11-04T01:33:59.021Z,99787.00
2022-11-04T01:36:28.377Z,99788.00
2022-11-04T01:38:57.125Z,99786.00
2022-11-04T01:53:15.135Z,99767.00
2022-11-04T01:55:50.822Z,99762.00
2022-11-04T01:58:21.975Z,99759.00
2022-11-04T02:00:49.437Z,99745.00
2022-11-04T02:03:19.939Z,99746.00
2022-11-04T02:05:48.302Z,99741.00
2022-11-04T02:08:19.320Z,99745.00
2022-11-04T02:10:57.996Z,99741.00
2022-11-04T02:13:26.640Z,99746.00
2022-11-04T02:16:14.966Z,99734.00
2022-11-04T02:18:59.689Z,99717.00
2022-11-04T02:21:54.462Z,99730.00
2022-11-04T02:24:42.234Z,99723.00
2022-11-04T02:27:45.340Z,99721.00
2022-11-04T02:30:22.461Z,99719.00
2022-11-04T02:33:23.209Z,99719.00
2022-11-04T02:36:09.505Z,99728.00
2022-11-04T02:39:05.209Z,99719.00
2022-11-04T02:41:44.491Z,99713.00
2022-11-04T02:44:59.741Z,99720.00
2022-11-04T02:47:31.755Z,99717.00
2022-11-04T02:50:08.691Z,99718.00
2022-11-04T02:52:38.499Z,99718.00
2022-11-04T02:55:17.480Z,99701.00
2022-11-04T02:57:48.559Z,99705.00
2022-11-04T03:00:16.091Z,99700.00
2022-11-04T03:03:04.107Z,99706.00
2022-11-04T03:05:39.265Z,99700.00
2022-11-04T03:08:46.509Z,99690.00
2022-11-04T03:11:27.717Z,99692.00
2022-11-04T03:14:34.774Z,99691.00
2022-11-04T03:17:09.123Z,99680.00
2022-11-04T03:19:41.976Z,99682.00
2022-11-04T03:22:18.954Z,99666.00
2022-11-04T03:24:48.669Z,99670.00
2022-11-04T03:27:50.761Z,99671.00
2022-11-04T03:30:22.174Z,99669.00
2022-11-04T03:33:20.506Z,99660.00
2022-11-04T03:35:47.656Z,99662.00
2022-11-04T03:38:14.891Z,99660.00
2022-11-04T03:40:41.969Z,99658.00
2022-11-04T03:43:19.484Z,99660.00
2022-11-04T03:45:47.090Z,99659.00
2022-11-04T03:48:14.278Z,99649.00
2022-11-04T03:50:44.628Z,99657.00
2022-11-04T03:53:14.388Z,99652.00
2022-11-04T03:56:08.351Z,99654.00
2022-11-04T03:59:28.051Z,99652.00
2022-11-04T04:02:22.750Z,99638.00
2022-11-04T04:05:33.317Z,99645.00
2022-11-04T04:08:18.349Z,99647.00
2022-11-04T04:11:36.422Z,99647.00
2022-11-04T04:14:39.218Z,99643.00
2022-11-04T04:17:36.811Z,99632.00
2022-11-04T04:20:22.917Z,99637.00
2022-11-04T04:23:01.489Z,99647.00
2022-11-04T04:25:51.011Z,99650.00
2022-11-04T04:28:19.398Z,99643.00
2022-11-04T04:30:47.070Z,99646.00
2022-11-04T04:33:18.748Z,99643.00
2022-11-04T04:35:57.021Z,99643.00
2022-11-04T04:38:49.775Z,99630.00
2022-11-04T04:41:41.146Z,99639.00
2022-11-04T04:44:45.523Z,99633.00
2022-11-04T04:47:20.330Z,99637.00
2022-11-04T04:49:59.888Z,99640.00
2022-11-04T04:52:34.620Z,99631.00
2022-11-04T04:55:01.701Z,99645.00
2022-11-04T04:57:28.698Z,99640.00
2022-11-04T04:59:55.731Z,99635.00
2022-11-04T05:02:22.986Z,99639.00
2022-11-04T05:04:50.069Z,99625.00
2022-11-04T05:07:17.078Z,99633.00
2022-11-04T05:09:44.032Z,99637.00
2022-11-04T05:12:11.104Z,99627.00
2022-11-04T05:14:38.149Z,99637.00
2022-11-04T05:17:05.276Z,99638.00
2022-11-04T05:19:32.276Z,99635.00
2022-11-04T05:21:59.280Z,99627.00
2022-11-04T05:24:26.191Z,99626.00
2022-11-04T05:26:53.353Z,99621.00
2022-11-04T05:29:20.467Z,99624.00
2022-11-04T05:31:47.775Z,99612.00
2022-11-04T05:34:14.765Z,99622.00
2022-11-04T05:36:41.954Z,99612.00
2022-11-04T05:39:12.756Z,99613.00
2022-11-04T05:41:39.775Z,99610.00
2022-11-04T05:44:09.497Z,99602.00
2022-11-04T05:46:36.619Z,99602.00
2022-11-04T05:49:03.978Z,99544.00
2022-11-04T05:51:31.916Z,99606.00
2022-11-04T05:53:58.981Z,99603.00
2022-11-04T05:56:25.988Z,99606.00
2022-11-04T05:58:53.017Z,99618.00
2022-11-04T06:01:28.163Z,99610.00
2022-11-04T06:03:57.081Z,99615.00
2022-11-04T06:06:26.531Z,99620.00
2022-11-04T06:08:54.611Z,99621.00
2022-11-04T06:11:23.119Z,99615.00
2022-11-04T06:13:52.446Z,99615.00
2022-11-04T06:16:19.405Z,99623.00
2022-11-04T06:18:46.501Z,99615.00
2022-11-04T06:21:14.396Z,99617.00
2022-11-04T06:23:42.863Z,99597.00
2022-11-04T06:26:11.776Z,99621.00
2022-11-04T06:28:39.229Z,99630.00
2022-11-04T06:31:09.327Z,99631.00
2022-11-04T06:33:37.188Z,99619.00
2022-11-04T06:36:07.714Z,99617.00
2022-11-04T06:38:40.030Z,99626.00
2022-11-04T06:41:12.505Z,99632.00
2022-11-04T06:43:39.646Z,99622.00
2022-11-04T06:46:27.930Z,99618.00
2022-11-04T06:48:57.252Z,99625.00
2022-11-04T06:51:25.943Z,99626.00
2022-11-04T06:53:53.249Z,99631.00
2022-11-04T06:56:20.316Z,99625.00
2022-11-04T06:58:55.141Z,99629.00
2022-11-04T07:01:27.006Z,99626.00
2022-11-04T07:03:56.997Z,99626.00
2022-11-04T07:06:24.566Z,99625.00
2022-11-04T07:08:53.542Z,99620.00
2022-11-04T07:11:22.814Z,99612.00
2022-11-04T07:13:50.088Z,99613.00
2022-11-04T07:16:18.363Z,99616.00
2022-11-04T07:18:45.756Z,99617.00
2022-11-04T07:34:39.176Z,99630.00
2022-11-04T07:37:06.306Z,99621.00
2022-11-04T07:39:33.374Z,99625.00
2022-11-04T07:42:00.844Z,99629.00
2022-11-04T07:44:27.877Z,99628.00
2022-11-04T07:46:54.894Z,99613.00
2022-11-04T07:49:21.992Z,99623.00
2022-11-04T07:51:49.071Z,99629.00
2022-11-04T07:54:16.054Z,99628.00
2022-11-04T07:56:43.029Z,99634.00
2022-11-04T07:59:11.135Z,99624.00
2022-11-04T08:01:38.122Z,99628.00
2022-11-04T08:04:07.085Z,99624.00
2022-11-04T08:06:34.117Z,99620.00
2022-11-04T08:09:01.155Z,99624.00
2022-11-04T08:11:28.537Z,99610.00
2022-11-04T08:13:56.714Z,99623.00
2022-11-04T08:16:30.008Z,99621.00
2022-11-04T08:19:01.762Z,99619.00
2022-11-04T08:21:31.004Z,99602.00
2022-11-04T08:23:58.188Z,99620.00
2022-11-04T08:26:25.440Z,99625.00
2022-11-04T08:28:53.083Z,99623.00
2022-11-04T08:31:28.564Z,99622.00
2022-11-04T08:33:57.486Z,99635.00
2022-11-04T08:36:36.948Z,99621.00
2022-11-04T08:39:10.600Z,99615.00
2022-11-04T08:41:43.143Z,99608.00
2022-11-04T08:44:14.236Z,99612.00
2022-11-04T08:46:44.960Z,99609.00
2022-11-04T08:49:16.298Z,99622.00
2022-11-04T08:51:49.534Z,99622.00
2022-11-04T08:54:16.956Z,99616.00
2022-11-04T08:56:44.117Z,99616.00
2022-11-04T08:59:11.591Z,99614.00
2022-11-04T09:01:39.102Z,99606.00
2022-11-04T09:04:06.772Z,99608.00
2022-11-04T09:06:42.788Z,99603.00
2022-11-04T09:09:17.185Z,99585.00
2022-11-04T09:11:45.668Z,99606.00
2022-11-04T09:14:13.185Z,99612.00
2022-11-04T09:16:42.272Z,99610.00
2022-11-04T09:19:12.283Z,99617.00
2022-11-04T09:21:39.255Z,99592.00
2022-11-04T09:24:07.825Z,99606.00
2022-11-04T09:26:35.488Z,99604.00
2022-11-04T09:29:02.620Z,99608.00
2022-11-04T09:31:31.046Z,99601.00
2022-11-04T09:33:58.511Z,99592.00
2022-11-04T09:36:26.268Z,99608.00
2022-11-04T09:38:54.190Z,99607.00
2022-11-04T09:41:39.002Z,99600.00
2022-11-04T09:44:22.747Z,99602.00
2022-11-04T09:46:53.708Z,99600.00
2022-11-04T09:49:21.651Z,99577.00
2022-11-04T09:51:55.199Z,99590.00
2022-11-04T09:54:41.847Z,99593.00
2022-11-04T09:57:19.871Z,99591.00
2022-11-04T09:59:48.464Z,99593.00
2022-11-04T10:02:40.590Z,99586.00
2022-11-04T10:05:34.327Z,99592.00
2022-11-04T10:08:17.823Z,99582.00
2022-11-04T10:11:14.458Z,99560.00
2022-11-04T10:14:13.295Z,99580.00
2022-11-04T10:16:58.304Z,99571.00
2022-11-04T10:19:47.968Z,99576.00
2022-11-04T10:22:35.129Z,99564.00
2022-11-04T10:25:16.190Z,99566.00
2022-11-04T10:27:47.430Z,99562.00
2022-11-04T10:30:20.996Z,99553.00
2022-11-04T10:33:14.110Z,99549.00
2022-11-04T10:36:13.207Z,99545.00
2022-11-04T10:38:47.236Z,99561.00
2022-11-04T10:41:16.851Z,99553.00
2022-11-04T10:43:44.018Z,99557.00
2022-11-04T10:46:38.872Z,99563.00
2022-11-04T10:50:27.908Z,99560.00
2022-11-04T10:53:10.496Z,99545.00
2022-11-04T10:56:17.720Z,99551.00
2022-11-04T10:58:48.683Z,99552.00
2022-11-04T11:01:31.623Z,99555.00
2022-11-04T11:03:59.467Z,99542.00
2022-11-04T11:06:35.205Z,99545.00
2022-11-04T11:09:28.541Z,99546.00
2022-11-04T11:12:01.866Z,99540.00
2022-11-04T11:14:28.794Z,99539.00
2022-11-04T11:16:58.524Z,99546.00
2022-11-04T11:19:26.648Z,99532.00
2022-11-04T11:21:57.767Z,99522.00
2022-11-04T11:24:30.711Z,99523.00
2022-11-04T11:27:03.957Z,99516.00
2022-11-04T11:29:40.516Z,99516.00
2022-11-04T11:32:33.401Z,99516.00
2022-11-04T11:35:03.500Z,99511.00
2022-11-04T11:37:33.700Z,99501.00
2022-11-04T11:40:00.718Z,99521.00
2022-11-04T11:42:30.437Z,99520.00
2022-11-04T11:45:00.076Z,99520.00
2022-11-04T11:47:30.023Z,99516.00
2022-11-04T11:50:18.783Z,99517.00
2022-11-04T11:52:48.106Z,99517.00
2022-11-04T11:55:35.967Z,99527.00
2022-11-04T12:01:46.880Z,99518.00
2022-11-04T12:10:50.537Z,99526.00
2022-11-04T12:13:37.168Z,99520.00
2022-11-04T12:16:19.329Z,99523.00
2022-11-04T12:19:37.949Z,99520.00
2022-11-04T12:22:29.373Z,99526.00
2022-11-04T12:25:14.148Z,99520.00
2022-11-04T12:28:00.572Z,99519.00
2022-11-04T12:30:37.234Z,99524.00
2022-11-04T12:33:29.615Z,99523.00
2022-11-04T12:36:30.584Z,99531.00
2022-11-04T12:39:21.424Z,99519.00
2022-11-04T12:42:21.923Z,99513.00
2022-11-04T12:45:25.680Z,99507.00
2022-11-04T12:48:04.430Z,99505.00
2022-11-04T12:51:06.532Z,99499.00
2022-11-04T12:53:39.311Z,99505.00
2022-11-04T12:56:14.533Z,99513.00
2022-11-04T12:59:04.783Z,99511.00
2022-11-04T13:01:53.437Z,99509.00
2022-11-04T13:04:23.572Z,99506.00
2022-11-04T13:07:01.174Z,99512.00
2022-11-04T13:09:59.615Z,99506.00
2022-11-04T13:12:40.221Z,99504.00
2022-11-04T13:15:20.868Z,99499.00
2022-11-04T13:17:54.791Z,99496.00
2022-11-04T13:20:33.553Z,99491.00
2022-11-04T13:23:08.847Z,99502.00
2022-11-04T13:25:43.487Z,99515.00
2022-11-04T13:28:16.646Z,99522.00
2022-11-04T13:30:53.747Z,99514.00
2022-11-04T13:33:57.992Z,99514.00
2022-11-04T13:36:57.753Z,99512.00
2022-11-04T13:39:42.516Z,99513.00
2022-11-04T13:42:42.008Z,99511.00
2022-11-04T13:45:17.492Z,99506.00
2022-11-04T13:47:57.525Z,99502.00
2022-11-04T13:50:41.652Z,99495.00
2022-11-04T13:53:11.792Z,99487.00
2022-11-04T13:55:51.066Z,99517.00
2022-11-04T13:58:26.111Z,99487.00
2022-11-04T14:01:13.800Z,99508.00
2022-11-04T14:04:11.195Z,99514.00
2022-11-04T14:06:58.936Z,99520.00
2022-11-04T14:09:44.248Z,99526.00
2022-11-04T14:12:14.236Z,99520.00
2022-11-04T14:15:01.623Z,99521.00
2022-11-04T14:17:34.799Z,99518.00
2022-11-04T14:20:22.010Z,99513.00
2022-11-04T14:22:56.576Z,99517.00
2022-11-04T14:25:44.161Z,99507.00
2022-11-04T14:28:11.142Z,99513.00
2022-11-04T14:30:57.472Z,99521.00
2022-11-04T14:33:56.350Z,99514.00
2022-11-04T14:36:34.845Z,99501.00
2022-11-04T14:39:22.383Z,99489.00
2022-11-04T14:41:49.882Z,99509.00
2022-11-04T14:44:21.503Z,99516.00
2022-11-04T14:46:55.513Z,99516.00
2022-11-04T14:49:31.509Z,99513.00
2022-11-04T14:51:59.054Z,99508.00
2022-11-04T14:54:34.112Z,99516.00
2022-11-04T14:57:19.683Z,99524.00
2022-11-04T14:59:47.515Z,99519.00
2022-11-04T15:02:28.718Z,99521.00
2022-11-04T15:05:01.912Z,99522.00
2022-11-04T15:07:35.728Z,99528.00
2022-11-04T15:10:36.055Z,99534.00
2022-11-04T15:13:03.212Z,99533.00
2022-11-04T15:15:31.599Z,99536.00
2022-11-04T15:18:28.542Z,99539.00
2022-11-04T15:21:00.278Z,99541.00
2022-11-04T15:23:31.590Z,99530.00
2022-11-04T15:26:03.399Z,99519.00
2022-11-04T15:28:38.050Z,99518.00
2022-11-04T15:31:11.237Z,99534.00
2022-11-04T15:33:46.643Z,99541.00
2022-11-04T15:36:32.676Z,99534.00
2022-11-04T15:39:14.263Z,99524.00
2022-11-04T15:42:03.803Z,99539.00
2022-11-04T15:44:34.634Z,99539.00
2022-11-04T15:47:19.837Z,99531.00
2022-11-04T15:49:49.865Z,99537.00
2022-11-04T15:52:29.252Z,99516.00
2022-11-04T15:54:59.829Z,99517.00
2022-11-04T15:57:35.731Z,99522.00
2022-11-04T16:00:25.943Z,99516.00
2022-11-04T16:03:01.196Z,99519.00
2022-11-04T16:05:33.765Z,99518.00
2022-11-04T16:08:36.331Z,99522.00
2022-11-04T16:11:18.807Z,99515.00
2022-11-04T16:13:46.920Z,99514.00
2022-11-04T16:16:27.539Z,99507.00
2022-11-04T16:19:00.474Z,99510.00
2022-11-04T16:21:36.483Z,99521.00
2022-11-04T16:24:24.450Z,99503.00
2022-11-04T16:27:01.764Z,99513.00
2022-11-04T16:29:36.734Z,99514.00
2022-11-04T16:32:25.986Z,99510.00
2022-11-04T16:35:01.834Z,99521.00
2022-11-04T16:37:32.469Z,99529.00
2022-11-04T16:40:05.338Z,99519.00
2022-11-04T16:42:37.713Z,99530.00
2022-11-04T16:45:11.065Z,99527.00
2022-11-04T16:47:42.281Z,99518.00
2022-11-04T16:50:18.849Z,99518.00
2022-11-04T16:52:48.180Z,99518.00
2022-11-04T16:55:19.681Z,99526.00
2022-11-04T16:57:53.518Z,99523.00
2022-11-04T17:00:25.632Z,99526.00
2022-11-04T17:02:55.062Z,99531.00
2022-11-04T17:05:24.063Z,99538.00
2022-11-04T17:07:54.479Z,99542.00
2022-11-04T17:10:29.316Z,99534.00
2022-11-04T17:12:57.798Z,99528.00
2022-11-04T17:15:31.820Z,99529.00
2022-11-04T17:18:02.255Z,99533.00
2022-11-04T17:20:33.861Z,99535.00
2022-11-04T17:23:03.583Z,99544.00
2022-11-04T17:25:35.264Z,99533.00
2022-11-04T17:28:05.720Z,99537.00
2022-11-04T17:30:35.633Z,99533.00
2022-11-04T17:33:11.134Z,99529.00
2022-11-04T17:35:42.143Z,99529.00
2022-11-04T17:38:15.240Z,99541.00
2022-11-04T17:41:01.789Z,99537.00
2022-11-04T17:43:48.844Z,99541.00
2022-11-04T17:46:39.665Z,99533.00
2022-11-04T17:49:21.542Z,99530.00
2022-11-04T17:51:56.032Z,99526.00
2022-11-04T17:54:28.372Z,99533.00
2022-11-04T17:56:57.853Z,99521.00
2022-11-04T17:59:25.310Z,99531.00
2022-11-04T18:01:53.372Z,99528.00
2022-11-04T18:04:24.113Z,99515.00
2022-11-04T18:06:56.065Z,99527.00
2022-11-04T18:09:29.132Z,99527.00
2022-11-04T18:12:15.408Z,99527.00
2022-11-04T18:27:01.662Z,99517.00
2022-11-04T18:29:28.890Z,99509.00
2022-11-04T18:32:07.240Z,99502.00
2022-11-04T18:34:45.075Z,99509.00
2022-11-04T18:37:15.486Z,99506.00
2022-11-04T18:39:44.036Z,99501.00
2022-11-04T18:42:12.286Z,99499.00
2022-11-04T18:44:42.300Z,99496.00
2022-11-04T18:47:11.756Z,99506.00
2022-11-04T18:49:39.450Z,99503.00
2022-11-04T18:52:07.053Z,99511.00
2022-11-04T18:54:36.674Z,99514.00
2022-11-04T18:57:05.464Z,99502.00
2022-11-04T18:59:35.000Z,99502.00
2022-11-04T19:02:04.148Z,99503.00
2022-11-04T19:04:32.043Z,99506.00
2022-11-04T19:07:00.758Z,99504.00
2022-11-04T19:09:47.666Z,99501.00
2022-11-04T19:12:35.470Z,99505.00
2022-11-04T19:15:05.544Z,99494.00
2022-11-04T19:17:36.784Z,99499.00
2022-11-04T19:20:11.656Z,99505.00
2022-11-04T19:22:43.724Z,99506.00
2022-11-04T19:25:12.535Z,99504.00
2022-11-04T19:28:26.841Z,99502.00
2022-11-04T19:30:39.704Z,99512.00
2022-11-04T19:33:08.283Z,99503.00
2022-11-04T19:35:47.132Z,99503.00
2022-11-04T19:38:14.495Z,99505.00
2022-11-04T19:40:44.779Z,99503.00
2022-11-04T19:43:15.733Z,99504.00
2022-11-04T19:45:54.540Z,99510.00
2022-11-04T19:48:21.861Z,99507.00
2022-11-04T19:50:50.055Z,99502.00
2022-11-04T19:53:18.552Z,99515.00
2022-11-04T19:55:53.057Z,99506.00
2022-11-04T19:58:23.762Z,99509.00
2022-11-04T20:00:51.219Z,99512.00
2022-11-04T20:03:21.074Z,99507.00
2022-11-04T20:05:48.545Z,99507.00
2022-11-04T20:08:17.247Z,99507.00
2022-11-04T20:10:45.689Z,99503.00
2022-11-04T20:13:38.177Z,99508.00
2022-11-04T20:16:12.845Z,99505.00
2022-11-04T20:18:41.455Z,99504.00
2022-11-04T20:21:10.401Z,99503.00
2022-11-04T20:23:39.601Z,99499.00
2022-11-04T20:26:20.032Z,99499.00
2022-11-04T20:28:49.319Z,99508.00
2022-11-04T20:31:25.345Z,99511.00
2022-11-04T20:33:57.727Z,99510.00
2022-11-04T20:36:28.931Z,99510.00
2022-11-04T20:39:16.791Z,99511.00
2022-11-04T20:41:45.202Z,99513.00
2022-11-04T20:44:18.150Z,99513.00
2022-11-04T20:46:46.510Z,99513.00
2022-11-04T20:49:14.316Z,99506.00
2022-11-04T20:51:50.064Z,99513.00
2022-11-04T20:54:21.895Z,99510.00
2022-11-04T20:56:51.149Z,99521.00
2022-11-04T20:59:19.719Z,99528.00
2022-11-04T21:01:50.822Z,99513.00
2022-11-04T21:04:21.597Z,99517.00
2022-11-04T21:06:51.942Z,99516.00
2022-11-04T21:09:23.317Z,99512.00
2022-11-04T21:11:52.258Z,99515.00
2022-11-04T21:14:21.034Z,99514.00
2022-11-04T21:16:49.619Z,99521.00
2022-11-04T21:19:18.000Z,99488.00
2022-11-04T21:21:47.130Z,99518.00
2022-11-04T21:24:16.560Z,99513.00
2022-11-04T21:26:46.053Z,99513.00
2022-11-04T21:29:18.285Z,99507.00
2022-11-04T21:31:48.334Z,99509.00
2022-11-04T21:34:16.078Z,99506.00
2022-11-04T21:36:43.716Z,99505.00
2022-11-04T21:39:13.196Z,99514.00
2022-11-04T21:41:41.632Z,99503.00
2022-11-04T21:44:13.592Z,99506.00
2022-11-04T21:46:46.114Z,99504.00
2022-11-04T21:49:13.836Z,99501.00
2022-11-04T21:51:42.164Z,99497.00
2022-11-04T21:54:11.115Z,99503.00
2022-11-04T21:56:39.791Z,99505.00
2022-11-04T21:59:07.634Z,99501.00
2022-11-04T22:01:37.080Z,99499.00
2022-11-04T22:04:05.942Z,99496.00
2022-11-04T22:06:35.693Z,99506.00
2022-11-04T22:09:08.222Z,99494.00
2022-11-04T22:11:37.445Z,99492.00
2022-11-04T22:14:09.092Z,99501.00
2022-11-04T22:16:41.508Z,99494.00
2022-11-04T22:19:13.756Z,99498.00
2022-11-04T22:21:45.273Z,99506.00
2022-11-04T22:24:16.314Z,99498.00
2022-11-04T22:26:44.790Z,99496.00
2022-11-04T22:29:12.098Z,99494.00
2022-11-04T22:31:43.208Z,99495.00
2022-11-04T22:34:11.046Z,99485.00
2022-11-04T22:36:41.035Z,99485.00
2022-11-04T22:39:16.505Z,99480.00
2022-11-04T22:41:46.689Z,99485.00
2022-11-04T22:44:14.564Z,99487.00
2022-11-04T22:46:42.869Z,99495.00
2022-11-04T22:49:11.104Z,99491.00
2022-11-04T22:51:39.852Z,99490.00
2022-11-04T22:54:09.567Z,99494.00
2022-11-04T22:56:38.460Z,99487.00
2022-11-04T22:59:06.304Z,99486.00
2022-11-04T23:01:33.963Z,99497.00
2022-11-04T23:04:02.407Z,99490.00
2022-11-04T23:06:30.924Z,99487.00
2022-11-04T23:09:00.676Z,99485.00
2022-11-04T23:11:51.128Z,99487.00
2022-11-04T23:14:40.716Z,99483.00
2022-11-04T23:17:56.904Z,99488.00
2022-11-04T23:20:28.045Z,99492.00
2022-11-04T23:23:14.672Z,99481.00
2022-11-04T23:25:44.319Z,99485.00
2022-11-04T23:28:31.115Z,99478.00
2022-11-04T23:30:59.656Z,99476.00
2022-11-04T23:33:48.897Z,99478.00
2022-11-04T23:36:34.851Z,99473.00
2022-11-04T23:39:03.100Z,99464.00
2022-11-04T23:41:49.067Z,99470.00
2022-11-04T23:44:36.376Z,99468.00
2022-11-04T23:47:23.261Z,99468.00
2022-11-04T23:50:09.637Z,99464.00
2022-11-04T23:52:55.315Z,99468.00
2022-11-04T23:55:41.317Z,99463.00
2022-11-04T23:58:28.740Z,99464.00
